sensor_id;sensor_type;location;lat;lon;timestamp;temperature;humidity
50606;DHT22;36557;53.572;10.170;2023-08-08T00:00:50;12.90;99.90
50606;DHT22;36557;53.572;10.170;2023-08-08T00:03:16;13.00;99.90
50606;DHT22;36557;53.572;10.170;2023-08-08T00:05:42;13.00;99.90
50606;DHT22;36557;53.572;10.170;2023-08-08T00:08:07;12.90;99.90
50606;DHT22;36557;53.572;10.170;2023-08-08T00:10:33;12.80;99.90
50606;DHT22;36557;53.572;10.170;2023-08-08T00:12:59;12.80;99.90
50606;DHT22;36557;53.572;10.170;2023-08-08T00:15:24;12.70;99.90
50606;DHT22;36557;53.572;10.170;2023-08-08T00:20:16;12.80;99.90
50606;DHT22;36557;53.572;10.170;2023-08-08T00:22:42;12.80;99.90
50606;DHT22;36557;53.572;10.170;2023-08-08T00:25:08;12.80;99.90
50606;DHT22;36557;53.572;10.170;2023-08-08T00:27:34;12.80;99.90
50606;DHT22;36557;53.572;10.170;2023-08-08T00:30:01;12.80;99.90
50606;DHT22;36557;53.572;10.170;2023-08-08T00:32:26;12.70;99.90
50606;DHT22;36557;53.572;10.170;2023-08-08T00:34:52;12.70;99.90
50606;DHT22;36557;53.572;10.170;2023-08-08T00:37:18;12.80;99.90
50606;DHT22;36557;53.572;10.170;2023-08-08T00:39:43;12.70;99.90
50606;DHT22;36557;53.572;10.170;2023-08-08T00:42:12;12.70;99.90
50606;DHT22;36557;53.572;10.170;2023-08-08T00:44:38;12.80;99.90
50606;DHT22;36557;53.572;10.170;2023-08-08T00:47:09;12.80;99.90
50606;DHT22;36557;53.572;10.170;2023-08-08T00:49:35;12.80;99.90
50606;DHT22;36557;53.572;10.170;2023-08-08T00:52:02;12.80;99.90
50606;DHT22;36557;53.572;10.170;2023-08-08T00:54:28;12.70;99.90
50606;DHT22;36557;53.572;10.170;2023-08-08T00:56:55;12.70;99.90
50606;DHT22;36557;53.572;10.170;2023-08-08T00:59:21;12.60;99.90
50606;DHT22;36557;53.572;10.170;2023-08-08T01:01:47;12.60;99.90
50606;DHT22;36557;53.572;10.170;2023-08-08T01:04:13;12.60;99.90
50606;DHT22;36557;53.572;10.170;2023-08-08T01:06:59;12.60;99.90
50606;DHT22;36557;53.572;10.170;2023-08-08T01:09:38;12.50;99.90
50606;DHT22;36557;53.572;10.170;2023-08-08T01:12:08;12.60;99.90
50606;DHT22;36557;53.572;10.170;2023-08-08T01:14:37;12.60;99.90
50606;DHT22;36557;53.572;10.170;2023-08-08T01:17:04;12.60;99.90
50606;DHT22;36557;53.572;10.170;2023-08-08T01:34:21;12.60;99.90
50606;DHT22;36557;53.572;10.170;2023-08-08T01:39:20;12.60;99.90
50606;DHT22;36557;53.572;10.170;2023-08-08T01:41:48;12.50;99.90
50606;DHT22;36557;53.572;10.170;2023-08-08T01:44:14;12.70;99.90
50606;DHT22;36557;53.572;10.170;2023-08-08T01:46:40;12.60;99.90
50606;DHT22;36557;53.572;10.170;2023-08-08T01:49:06;12.60;99.90
50606;DHT22;36557;53.572;10.170;2023-08-08T01:51:32;12.60;99.90
50606;DHT22;36557;53.572;10.170;2023-08-08T01:53:58;12.70;99.90
50606;DHT22;36557;53.572;10.170;2023-08-08T01:56:24;12.70;99.90
50606;DHT22;36557;53.572;10.170;2023-08-08T01:58:49;12.70;99.90
50606;DHT22;36557;53.572;10.170;2023-08-08T02:01:15;12.70;99.90
50606;DHT22;36557;53.572;10.170;2023-08-08T02:03:41;12.80;99.90
50606;DHT22;36557;53.572;10.170;2023-08-08T02:06:07;12.80;99.90
50606;DHT22;36557;53.572;10.170;2023-08-08T02:08:32;12.80;99.90
50606;DHT22;36557;53.572;10.170;2023-08-08T02:10:58;12.80;99.90
50606;DHT22;36557;53.572;10.170;2023-08-08T02:13:24;12.80;99.90
50606;DHT22;36557;53.572;10.170;2023-08-08T02:15:52;12.70;99.90
50606;DHT22;36557;53.572;10.170;2023-08-08T02:18:18;12.70;99.90
50606;DHT22;36557;53.572;10.170;2023-08-08T02:20:44;12.70;99.90
50606;DHT22;36557;53.572;10.170;2023-08-08T02:23:09;12.70;99.90
50606;DHT22;36557;53.572;10.170;2023-08-08T02:25:35;12.80;99.90
50606;DHT22;36557;53.572;10.170;2023-08-08T02:28:01;12.80;99.90
50606;DHT22;36557;53.572;10.170;2023-08-08T02:30:27;12.80;99.90
50606;DHT22;36557;53.572;10.170;2023-08-08T02:32:52;12.80;99.90
50606;DHT22;36557;53.572;10.170;2023-08-08T02:35:18;12.70;99.90
50606;DHT22;36557;53.572;10.170;2023-08-08T02:42:36;12.80;99.90
50606;DHT22;36557;53.572;10.170;2023-08-08T02:45:02;12.80;99.90
50606;DHT22;36557;53.572;10.170;2023-08-08T02:47:28;12.80;99.90
50606;DHT22;36557;53.572;10.170;2023-08-08T02:49:54;12.70;99.90
50606;DHT22;36557;53.572;10.170;2023-08-08T02:52:19;12.70;99.90
50606;DHT22;36557;53.572;10.170;2023-08-08T02:54:45;12.70;99.90
50606;DHT22;36557;53.572;10.170;2023-08-08T02:57:11;12.70;99.90
50606;DHT22;36557;53.572;10.170;2023-08-08T02:59:37;12.80;99.90
50606;DHT22;36557;53.572;10.170;2023-08-08T03:02:03;12.70;99.90
50606;DHT22;36557;53.572;10.170;2023-08-08T03:04:30;12.70;99.90
50606;DHT22;36557;53.572;10.170;2023-08-08T03:06:55;12.70;99.90
50606;DHT22;36557;53.572;10.170;2023-08-08T03:09:21;12.60;99.90
50606;DHT22;36557;53.572;10.170;2023-08-08T03:11:47;12.60;99.90
50606;DHT22;36557;53.572;10.170;2023-08-08T03:14:13;12.60;99.90
50606;DHT22;36557;53.572;10.170;2023-08-08T03:16:39;12.70;99.90
50606;DHT22;36557;53.572;10.170;2023-08-08T03:19:05;12.60;99.90
50606;DHT22;36557;53.572;10.170;2023-08-08T03:21:31;12.50;99.90
50606;DHT22;36557;53.572;10.170;2023-08-08T03:24:00;12.60;99.90
50606;DHT22;36557;53.572;10.170;2023-08-08T03:26:25;12.70;99.90
50606;DHT22;36557;53.572;10.170;2023-08-08T03:28:51;12.70;99.90
50606;DHT22;36557;53.572;10.170;2023-08-08T03:31:19;12.60;99.90
50606;DHT22;36557;53.572;10.170;2023-08-08T03:33:45;12.50;99.90
50606;DHT22;36557;53.572;10.170;2023-08-08T03:36:11;12.60;99.90
50606;DHT22;36557;53.572;10.170;2023-08-08T03:38:37;12.60;99.90
50606;DHT22;36557;53.572;10.170;2023-08-08T03:41:05;12.60;99.90
50606;DHT22;36557;53.572;10.170;2023-08-08T03:43:31;12.60;99.90
50606;DHT22;36557;53.572;10.170;2023-08-08T03:45:57;12.60;99.90
50606;DHT22;36557;53.572;10.170;2023-08-08T03:48:22;12.60;99.90
50606;DHT22;36557;53.572;10.170;2023-08-08T03:50:48;12.50;99.90
50606;DHT22;36557;53.572;10.170;2023-08-08T03:53:14;12.60;99.90
50606;DHT22;36557;53.572;10.170;2023-08-08T03:55:39;12.70;99.90
50606;DHT22;36557;53.572;10.170;2023-08-08T03:58:05;12.60;99.90
50606;DHT22;36557;53.572;10.170;2023-08-08T04:00:31;12.70;99.90
50606;DHT22;36557;53.572;10.170;2023-08-08T04:02:57;12.70;99.90
50606;DHT22;36557;53.572;10.170;2023-08-08T04:05:23;12.70;99.90
50606;DHT22;36557;53.572;10.170;2023-08-08T04:07:49;12.70;99.90
50606;DHT22;36557;53.572;10.170;2023-08-08T04:10:15;12.70;99.90
50606;DHT22;36557;53.572;10.170;2023-08-08T04:12:41;12.60;99.90
50606;DHT22;36557;53.572;10.170;2023-08-08T04:15:07;12.70;99.90
50606;DHT22;36557;53.572;10.170;2023-08-08T04:17:32;12.70;99.90
50606;DHT22;36557;53.572;10.170;2023-08-08T04:19:58;12.70;99.90
50606;DHT22;36557;53.572;10.170;2023-08-08T04:22:24;12.70;99.90
50606;DHT22;36557;53.572;10.170;2023-08-08T04:24:50;12.60;99.90
50606;DHT22;36557;53.572;10.170;2023-08-08T04:27:18;12.80;99.90
50606;DHT22;36557;53.572;10.170;2023-08-08T04:29:44;12.70;99.90
50606;DHT22;36557;53.572;10.170;2023-08-08T04:32:09;12.70;99.90
50606;DHT22;36557;53.572;10.170;2023-08-08T04:34:35;12.80;99.90
50606;DHT22;36557;53.572;10.170;2023-08-08T04:37:01;12.70;99.90
50606;DHT22;36557;53.572;10.170;2023-08-08T04:39:27;12.70;99.90
50606;DHT22;36557;53.572;10.170;2023-08-08T04:41:52;12.80;99.90
50606;DHT22;36557;53.572;10.170;2023-08-08T04:44:18;12.80;99.90
50606;DHT22;36557;53.572;10.170;2023-08-08T04:46:44;12.80;99.90
50606;DHT22;36557;53.572;10.170;2023-08-08T04:49:09;12.80;99.90
50606;DHT22;36557;53.572;10.170;2023-08-08T04:51:35;12.70;99.90
50606;DHT22;36557;53.572;10.170;2023-08-08T04:54:01;12.80;99.90
50606;DHT22;36557;53.572;10.170;2023-08-08T04:56:27;12.70;99.90
50606;DHT22;36557;53.572;10.170;2023-08-08T04:58:53;12.80;99.90
50606;DHT22;36557;53.572;10.170;2023-08-08T05:01:19;12.80;99.90
50606;DHT22;36557;53.572;10.170;2023-08-08T05:03:46;12.80;99.90
50606;DHT22;36557;53.572;10.170;2023-08-08T05:06:12;13.00;99.90
50606;DHT22;36557;53.572;10.170;2023-08-08T05:08:37;13.10;99.90
50606;DHT22;36557;53.572;10.170;2023-08-08T05:11:03;13.00;99.90
50606;DHT22;36557;53.572;10.170;2023-08-08T05:13:29;13.00;99.90
50606;DHT22;36557;53.572;10.170;2023-08-08T05:15:54;13.00;99.90
50606;DHT22;36557;53.572;10.170;2023-08-08T05:18:20;13.10;99.90
50606;DHT22;36557;53.572;10.170;2023-08-08T05:20:46;13.20;99.90
50606;DHT22;36557;53.572;10.170;2023-08-08T05:23:11;13.20;99.90
50606;DHT22;36557;53.572;10.170;2023-08-08T05:25:37;13.30;99.90
50606;DHT22;36557;53.572;10.170;2023-08-08T05:28:03;13.50;99.90
50606;DHT22;36557;53.572;10.170;2023-08-08T05:30:29;13.70;99.90
50606;DHT22;36557;53.572;10.170;2023-08-08T05:32:54;13.90;99.90
50606;DHT22;36557;53.572;10.170;2023-08-08T05:35:20;14.00;99.90
50606;DHT22;36557;53.572;10.170;2023-08-08T05:37:46;14.00;99.90
50606;DHT22;36557;53.572;10.170;2023-08-08T05:40:12;14.10;99.90
50606;DHT22;36557;53.572;10.170;2023-08-08T05:42:38;14.10;99.90
50606;DHT22;36557;53.572;10.170;2023-08-08T05:45:04;14.00;99.90
50606;DHT22;36557;53.572;10.170;2023-08-08T05:47:30;14.00;99.90
50606;DHT22;36557;53.572;10.170;2023-08-08T05:49:56;14.00;99.90
50606;DHT22;36557;53.572;10.170;2023-08-08T05:52:21;14.30;99.90
50606;DHT22;36557;53.572;10.170;2023-08-08T05:54:47;14.50;99.90
50606;DHT22;36557;53.572;10.170;2023-08-08T05:57:13;14.50;99.90
50606;DHT22;36557;53.572;10.170;2023-08-08T05:59:39;14.40;99.90
50606;DHT22;36557;53.572;10.170;2023-08-08T06:02:05;14.40;99.90
50606;DHT22;36557;53.572;10.170;2023-08-08T06:04:31;14.40;99.90
50606;DHT22;36557;53.572;10.170;2023-08-08T06:06:57;14.30;99.90
50606;DHT22;36557;53.572;10.170;2023-08-08T06:09:22;14.10;99.90
50606;DHT22;36557;53.572;10.170;2023-08-08T06:11:48;14.20;99.90
50606;DHT22;36557;53.572;10.170;2023-08-08T06:14:14;14.40;99.90
50606;DHT22;36557;53.572;10.170;2023-08-08T06:16:40;14.70;99.90
50606;DHT22;36557;53.572;10.170;2023-08-08T06:19:06;14.80;99.90
50606;DHT22;36557;53.572;10.170;2023-08-08T06:21:32;14.70;99.90
50606;DHT22;36557;53.572;10.170;2023-08-08T06:23:58;14.70;99.90
50606;DHT22;36557;53.572;10.170;2023-08-08T06:26:23;14.70;99.90
50606;DHT22;36557;53.572;10.170;2023-08-08T06:28:49;14.80;99.90
50606;DHT22;36557;53.572;10.170;2023-08-08T06:31:17;14.70;99.90
50606;DHT22;36557;53.572;10.170;2023-08-08T06:33:43;14.50;99.90
50606;DHT22;36557;53.572;10.170;2023-08-08T06:36:09;14.50;99.90
50606;DHT22;36557;53.572;10.170;2023-08-08T06:38:35;14.50;99.90
50606;DHT22;36557;53.572;10.170;2023-08-08T06:41:02;14.70;99.90
50606;DHT22;36557;53.572;10.170;2023-08-08T06:43:28;15.00;99.90
50606;DHT22;36557;53.572;10.170;2023-08-08T06:45:56;15.20;99.90
50606;DHT22;36557;53.572;10.170;2023-08-08T06:48:23;15.50;99.90
50606;DHT22;36557;53.572;10.170;2023-08-08T06:50:48;15.40;99.90
50606;DHT22;36557;53.572;10.170;2023-08-08T06:53:14;15.30;99.90
50606;DHT22;36557;53.572;10.170;2023-08-08T06:55:40;15.20;99.90
50606;DHT22;36557;53.572;10.170;2023-08-08T06:58:05;15.00;99.90
50606;DHT22;36557;53.572;10.170;2023-08-08T07:00:31;15.20;99.90
50606;DHT22;36557;53.572;10.170;2023-08-08T07:02:57;15.20;99.90
50606;DHT22;36557;53.572;10.170;2023-08-08T07:05:23;15.60;99.90
50606;DHT22;36557;53.572;10.170;2023-08-08T07:07:50;15.80;99.90
50606;DHT22;36557;53.572;10.170;2023-08-08T07:10:16;16.10;99.90
50606;DHT22;36557;53.572;10.170;2023-08-08T07:12:41;16.30;99.90
50606;DHT22;36557;53.572;10.170;2023-08-08T07:15:08;16.00;99.90
50606;DHT22;36557;53.572;10.170;2023-08-08T07:17:33;16.20;99.90
50606;DHT22;36557;53.572;10.170;2023-08-08T07:19:59;16.10;99.90
50606;DHT22;36557;53.572;10.170;2023-08-08T07:22:25;16.00;99.90
50606;DHT22;36557;53.572;10.170;2023-08-08T07:24:51;16.10;99.90
50606;DHT22;36557;53.572;10.170;2023-08-08T07:27:17;16.30;99.90
50606;DHT22;36557;53.572;10.170;2023-08-08T07:29:43;16.60;99.90
50606;DHT22;36557;53.572;10.170;2023-08-08T07:32:09;16.40;99.90
50606;DHT22;36557;53.572;10.170;2023-08-08T07:34:34;16.50;99.90
50606;DHT22;36557;53.572;10.170;2023-08-08T07:37:00;16.70;99.90
50606;DHT22;36557;53.572;10.170;2023-08-08T07:39:26;16.80;99.90
50606;DHT22;36557;53.572;10.170;2023-08-08T07:41:52;16.80;99.90
50606;DHT22;36557;53.572;10.170;2023-08-08T07:44:18;16.90;99.90
50606;DHT22;36557;53.572;10.170;2023-08-08T07:46:44;17.20;99.90
50606;DHT22;36557;53.572;10.170;2023-08-08T07:49:10;17.40;99.90
50606;DHT22;36557;53.572;10.170;2023-08-08T07:51:36;17.20;99.90
50606;DHT22;36557;53.572;10.170;2023-08-08T07:54:01;17.20;99.90
50606;DHT22;36557;53.572;10.170;2023-08-08T07:56:27;17.50;99.90
50606;DHT22;36557;53.572;10.170;2023-08-08T07:58:54;17.70;99.90
50606;DHT22;36557;53.572;10.170;2023-08-08T08:01:20;17.80;99.90
50606;DHT22;36557;53.572;10.170;2023-08-08T08:03:45;17.80;99.90
50606;DHT22;36557;53.572;10.170;2023-08-08T08:06:11;17.80;99.90
50606;DHT22;36557;53.572;10.170;2023-08-08T08:08:37;17.80;99.90
50606;DHT22;36557;53.572;10.170;2023-08-08T08:11:03;17.40;99.90
50606;DHT22;36557;53.572;10.170;2023-08-08T08:13:28;17.40;99.90
50606;DHT22;36557;53.572;10.170;2023-08-08T08:15:54;17.20;99.90
50606;DHT22;36557;53.572;10.170;2023-08-08T08:18:20;17.10;99.90
50606;DHT22;36557;53.572;10.170;2023-08-08T08:20:46;17.40;99.90
50606;DHT22;36557;53.572;10.170;2023-08-08T08:23:13;17.40;99.90
50606;DHT22;36557;53.572;10.170;2023-08-08T08:25:38;17.70;99.90
50606;DHT22;36557;53.572;10.170;2023-08-08T08:28:04;17.80;99.90
50606;DHT22;36557;53.572;10.170;2023-08-08T08:30:30;17.20;99.90
50606;DHT22;36557;53.572;10.170;2023-08-08T08:32:56;17.00;99.90
50606;DHT22;36557;53.572;10.170;2023-08-08T08:35:26;16.90;99.90
50606;DHT22;36557;53.572;10.170;2023-08-08T08:37:54;17.00;99.90
50606;DHT22;36557;53.572;10.170;2023-08-08T08:40:20;17.10;99.90
50606;DHT22;36557;53.572;10.170;2023-08-08T08:42:47;16.90;99.90
50606;DHT22;36557;53.572;10.170;2023-08-08T08:45:14;17.00;99.90
50606;DHT22;36557;53.572;10.170;2023-08-08T08:47:44;16.80;99.90
50606;DHT22;36557;53.572;10.170;2023-08-08T08:50:13;16.80;99.90
50606;DHT22;36557;53.572;10.170;2023-08-08T08:52:39;16.80;99.90
50606;DHT22;36557;53.572;10.170;2023-08-08T08:55:06;16.60;99.90
50606;DHT22;36557;53.572;10.170;2023-08-08T08:57:32;16.50;99.90
50606;DHT22;36557;53.572;10.170;2023-08-08T08:59:58;16.60;99.90
50606;DHT22;36557;53.572;10.170;2023-08-08T09:02:24;16.50;99.90
50606;DHT22;36557;53.572;10.170;2023-08-08T09:04:51;16.50;99.90
50606;DHT22;36557;53.572;10.170;2023-08-08T09:07:19;16.60;99.90
50606;DHT22;36557;53.572;10.170;2023-08-08T09:09:46;16.90;99.90
50606;DHT22;36557;53.572;10.170;2023-08-08T09:12:11;17.10;99.90
50606;DHT22;36557;53.572;10.170;2023-08-08T09:14:41;17.20;99.90
50606;DHT22;36557;53.572;10.170;2023-08-08T09:17:13;17.10;99.90
50606;DHT22;36557;53.572;10.170;2023-08-08T09:19:43;17.10;99.90
50606;DHT22;36557;53.572;10.170;2023-08-08T09:22:09;17.10;99.90
50606;DHT22;36557;53.572;10.170;2023-08-08T09:24:40;17.00;99.90
50606;DHT22;36557;53.572;10.170;2023-08-08T09:27:07;17.00;99.90
50606;DHT22;36557;53.572;10.170;2023-08-08T09:29:33;16.90;99.90
50606;DHT22;36557;53.572;10.170;2023-08-08T09:31:59;17.10;99.90
50606;DHT22;36557;53.572;10.170;2023-08-08T09:34:25;17.20;99.90
50606;DHT22;36557;53.572;10.170;2023-08-08T09:36:52;17.20;99.90
50606;DHT22;36557;53.572;10.170;2023-08-08T09:39:18;17.30;99.90
50606;DHT22;36557;53.572;10.170;2023-08-08T09:41:46;17.40;99.90
50606;DHT22;36557;53.572;10.170;2023-08-08T09:44:12;17.50;99.90
50606;DHT22;36557;53.572;10.170;2023-08-08T09:46:39;17.70;99.90
50606;DHT22;36557;53.572;10.170;2023-08-08T09:49:06;17.80;99.90
50606;DHT22;36557;53.572;10.170;2023-08-08T09:51:31;17.60;99.90
50606;DHT22;36557;53.572;10.170;2023-08-08T09:53:59;17.20;99.90
50606;DHT22;36557;53.572;10.170;2023-08-08T09:56:26;17.00;99.90
50606;DHT22;36557;53.572;10.170;2023-08-08T09:58:52;16.90;99.90
50606;DHT22;36557;53.572;10.170;2023-08-08T10:01:20;16.80;99.90
50606;DHT22;36557;53.572;10.170;2023-08-08T10:03:46;16.60;99.90
50606;DHT22;36557;53.572;10.170;2023-08-08T10:06:13;16.40;99.90
50606;DHT22;36557;53.572;10.170;2023-08-08T10:08:39;16.40;99.90
50606;DHT22;36557;53.572;10.170;2023-08-08T10:11:06;16.10;99.90
50606;DHT22;36557;53.572;10.170;2023-08-08T10:13:36;16.00;99.90
50606;DHT22;36557;53.572;10.170;2023-08-08T10:16:08;15.70;99.90
50606;DHT22;36557;53.572;10.170;2023-08-08T10:18:34;15.70;99.90
50606;DHT22;36557;53.572;10.170;2023-08-08T10:21:00;15.60;99.90
50606;DHT22;36557;53.572;10.170;2023-08-08T10:23:36;15.10;99.90
50606;DHT22;36557;53.572;10.170;2023-08-08T10:26:03;15.30;99.90
50606;DHT22;36557;53.572;10.170;2023-08-08T10:28:29;15.60;99.90
50606;DHT22;36557;53.572;10.170;2023-08-08T10:30:59;15.70;99.90
50606;DHT22;36557;53.572;10.170;2023-08-08T10:33:39;15.80;99.90
50606;DHT22;36557;53.572;10.170;2023-08-08T10:36:06;15.60;99.90
50606;DHT22;36557;53.572;10.170;2023-08-08T10:38:43;15.70;99.90
50606;DHT22;36557;53.572;10.170;2023-08-08T10:41:17;15.30;99.90
50606;DHT22;36557;53.572;10.170;2023-08-08T10:43:54;15.50;99.90
50606;DHT22;36557;53.572;10.170;2023-08-08T10:46:32;15.30;99.90
50606;DHT22;36557;53.572;10.170;2023-08-08T10:49:04;15.50;99.90
50606;DHT22;36557;53.572;10.170;2023-08-08T10:51:41;15.70;99.90
50606;DHT22;36557;53.572;10.170;2023-08-08T10:54:16;15.90;99.90
50606;DHT22;36557;53.572;10.170;2023-08-08T10:56:54;16.20;99.90
50606;DHT22;36557;53.572;10.170;2023-08-08T10:59:28;16.40;99.90
50606;DHT22;36557;53.572;10.170;2023-08-08T11:02:01;16.30;99.90
50606;DHT22;36557;53.572;10.170;2023-08-08T11:04:27;16.30;99.90
50606;DHT22;36557;53.572;10.170;2023-08-08T11:06:55;16.30;99.90
50606;DHT22;36557;53.572;10.170;2023-08-08T11:09:20;16.10;99.90
50606;DHT22;36557;53.572;10.170;2023-08-08T11:11:46;15.50;99.90
50606;DHT22;36557;53.572;10.170;2023-08-08T11:14:15;15.40;99.90
50606;DHT22;36557;53.572;10.170;2023-08-08T11:16:41;15.50;99.90
50606;DHT22;36557;53.572;10.170;2023-08-08T11:19:09;15.60;99.90
50606;DHT22;36557;53.572;10.170;2023-08-08T11:21:36;15.60;99.90
50606;DHT22;36557;53.572;10.170;2023-08-08T11:24:04;16.10;99.90
50606;DHT22;36557;53.572;10.170;2023-08-08T11:26:30;16.60;99.90
50606;DHT22;36557;53.572;10.170;2023-08-08T11:29:00;16.70;99.90
50606;DHT22;36557;53.572;10.170;2023-08-08T11:31:26;16.60;99.90
50606;DHT22;36557;53.572;10.170;2023-08-08T11:33:56;16.20;99.90
50606;DHT22;36557;53.572;10.170;2023-08-08T11:36:22;15.70;99.90
50606;DHT22;36557;53.572;10.170;2023-08-08T11:38:50;15.90;99.90
50606;DHT22;36557;53.572;10.170;2023-08-08T11:41:17;15.90;99.90
50606;DHT22;36557;53.572;10.170;2023-08-08T11:43:44;15.50;99.90
50606;DHT22;36557;53.572;10.170;2023-08-08T11:46:13;15.30;99.90
50606;DHT22;36557;53.572;10.170;2023-08-08T11:48:39;15.30;99.90
50606;DHT22;36557;53.572;10.170;2023-08-08T11:51:06;15.90;99.90
50606;DHT22;36557;53.572;10.170;2023-08-08T11:53:32;16.90;99.90
50606;DHT22;36557;53.572;10.170;2023-08-08T11:56:02;16.90;99.90
50606;DHT22;36557;53.572;10.170;2023-08-08T11:58:29;16.70;99.90
50606;DHT22;36557;53.572;10.170;2023-08-08T12:00:59;16.70;99.90
50606;DHT22;36557;53.572;10.170;2023-08-08T12:03:26;16.60;99.90
50606;DHT22;36557;53.572;10.170;2023-08-08T12:05:51;16.40;99.90
50606;DHT22;36557;53.572;10.170;2023-08-08T12:08:21;16.30;99.90
50606;DHT22;36557;53.572;10.170;2023-08-08T12:10:50;16.20;99.90
50606;DHT22;36557;53.572;10.170;2023-08-08T12:13:22;16.00;99.90
50606;DHT22;36557;53.572;10.170;2023-08-08T12:15:48;16.00;99.90
50606;DHT22;36557;53.572;10.170;2023-08-08T12:18:18;16.50;99.90
50606;DHT22;36557;53.572;10.170;2023-08-08T12:20:44;17.10;99.90
50606;DHT22;36557;53.572;10.170;2023-08-08T12:23:10;17.80;99.90
50606;DHT22;36557;53.572;10.170;2023-08-08T12:25:36;17.70;99.90
50606;DHT22;36557;53.572;10.170;2023-08-08T12:28:02;17.30;99.90
50606;DHT22;36557;53.572;10.170;2023-08-08T12:30:28;18.10;99.90
50606;DHT22;36557;53.572;10.170;2023-08-08T12:32:54;18.30;99.90
50606;DHT22;36557;53.572;10.170;2023-08-08T12:35:19;18.40;99.90
50606;DHT22;36557;53.572;10.170;2023-08-08T12:37:46;18.50;99.90
50606;DHT22;36557;53.572;10.170;2023-08-08T12:40:12;18.50;99.90
50606;DHT22;36557;53.572;10.170;2023-08-08T12:42:38;18.80;99.90
50606;DHT22;36557;53.572;10.170;2023-08-08T12:45:05;18.90;99.90
50606;DHT22;36557;53.572;10.170;2023-08-08T12:47:31;18.60;99.90
50606;DHT22;36557;53.572;10.170;2023-08-08T12:49:57;18.60;99.90
50606;DHT22;36557;53.572;10.170;2023-08-08T12:52:23;19.00;99.90
50606;DHT22;36557;53.572;10.170;2023-08-08T12:54:49;19.30;99.90
50606;DHT22;36557;53.572;10.170;2023-08-08T12:57:15;19.70;99.90
50606;DHT22;36557;53.572;10.170;2023-08-08T12:59:40;20.00;99.90
50606;DHT22;36557;53.572;10.170;2023-08-08T13:02:07;19.70;99.90
50606;DHT22;36557;53.572;10.170;2023-08-08T13:04:33;19.40;99.90
50606;DHT22;36557;53.572;10.170;2023-08-08T13:06:59;19.20;99.90
50606;DHT22;36557;53.572;10.170;2023-08-08T13:09:25;19.30;99.90
50606;DHT22;36557;53.572;10.170;2023-08-08T13:11:51;19.00;99.90
50606;DHT22;36557;53.572;10.170;2023-08-08T13:14:17;18.50;99.90
50606;DHT22;36557;53.572;10.170;2023-08-08T13:16:42;17.90;99.90
50606;DHT22;36557;53.572;10.170;2023-08-08T13:19:08;16.70;99.90
50606;DHT22;36557;53.572;10.170;2023-08-08T13:21:34;16.50;99.90
50606;DHT22;36557;53.572;10.170;2023-08-08T13:24:00;15.60;99.90
50606;DHT22;36557;53.572;10.170;2023-08-08T13:26:25;15.40;99.90
50606;DHT22;36557;53.572;10.170;2023-08-08T13:28:51;15.30;99.90
50606;DHT22;36557;53.572;10.170;2023-08-08T13:31:17;15.50;99.90
50606;DHT22;36557;53.572;10.170;2023-08-08T13:33:43;16.20;99.90
50606;DHT22;36557;53.572;10.170;2023-08-08T13:36:09;16.40;99.90
50606;DHT22;36557;53.572;10.170;2023-08-08T13:38:35;17.20;99.90
50606;DHT22;36557;53.572;10.170;2023-08-08T13:41:01;17.70;99.90
50606;DHT22;36557;53.572;10.170;2023-08-08T13:43:26;18.10;99.90
50606;DHT22;36557;53.572;10.170;2023-08-08T13:45:52;18.00;99.90
50606;DHT22;36557;53.572;10.170;2023-08-08T13:48:18;18.30;99.90
50606;DHT22;36557;53.572;10.170;2023-08-08T13:50:44;18.10;99.90
50606;DHT22;36557;53.572;10.170;2023-08-08T13:53:09;17.90;99.90
50606;DHT22;36557;53.572;10.170;2023-08-08T13:55:35;17.40;99.90
50606;DHT22;36557;53.572;10.170;2023-08-08T13:58:06;17.20;99.90
50606;DHT22;36557;53.572;10.170;2023-08-08T14:00:32;16.90;99.90
50606;DHT22;36557;53.572;10.170;2023-08-08T14:02:58;16.90;99.90
50606;DHT22;36557;53.572;10.170;2023-08-08T14:05:24;16.50;99.90
50606;DHT22;36557;53.572;10.170;2023-08-08T14:07:50;16.10;99.90
50606;DHT22;36557;53.572;10.170;2023-08-08T14:10:16;15.70;99.90
50606;DHT22;36557;53.572;10.170;2023-08-08T14:12:41;15.60;99.90
50606;DHT22;36557;53.572;10.170;2023-08-08T14:15:08;15.40;99.90
50606;DHT22;36557;53.572;10.170;2023-08-08T14:17:34;15.30;99.90
50606;DHT22;36557;53.572;10.170;2023-08-08T14:20:00;15.50;99.90
50606;DHT22;36557;53.572;10.170;2023-08-08T14:22:26;15.70;99.90
50606;DHT22;36557;53.572;10.170;2023-08-08T14:24:52;15.90;99.90
50606;DHT22;36557;53.572;10.170;2023-08-08T14:27:18;16.10;99.90
50606;DHT22;36557;53.572;10.170;2023-08-08T14:29:44;15.90;99.90
50606;DHT22;36557;53.572;10.170;2023-08-08T14:32:09;15.80;99.90
50606;DHT22;36557;53.572;10.170;2023-08-08T14:34:36;16.30;99.90
50606;DHT22;36557;53.572;10.170;2023-08-08T14:37:03;16.40;99.90
50606;DHT22;36557;53.572;10.170;2023-08-08T14:39:29;16.40;99.90
50606;DHT22;36557;53.572;10.170;2023-08-08T14:41:56;16.50;99.90
50606;DHT22;36557;53.572;10.170;2023-08-08T14:44:22;16.50;99.90
50606;DHT22;36557;53.572;10.170;2023-08-08T14:46:48;16.50;99.90
50606;DHT22;36557;53.572;10.170;2023-08-08T14:49:13;16.50;99.90
50606;DHT22;36557;53.572;10.170;2023-08-08T14:51:39;17.00;99.90
50606;DHT22;36557;53.572;10.170;2023-08-08T14:54:05;17.20;99.90
50606;DHT22;36557;53.572;10.170;2023-08-08T14:56:30;17.00;99.90
50606;DHT22;36557;53.572;10.170;2023-08-08T14:58:56;16.60;99.90
50606;DHT22;36557;53.572;10.170;2023-08-08T15:01:22;16.50;99.90
50606;DHT22;36557;53.572;10.170;2023-08-08T15:03:49;16.50;99.90
50606;DHT22;36557;53.572;10.170;2023-08-08T15:06:15;16.60;99.90
50606;DHT22;36557;53.572;10.170;2023-08-08T15:08:41;16.80;99.90
50606;DHT22;36557;53.572;10.170;2023-08-08T15:11:07;16.60;99.90
50606;DHT22;36557;53.572;10.170;2023-08-08T15:13:33;16.50;99.90
50606;DHT22;36557;53.572;10.170;2023-08-08T15:15:59;16.60;99.90
50606;DHT22;36557;53.572;10.170;2023-08-08T15:18:25;16.50;99.90
50606;DHT22;36557;53.572;10.170;2023-08-08T15:20:51;16.40;99.90
50606;DHT22;36557;53.572;10.170;2023-08-08T15:23:16;16.30;99.90
50606;DHT22;36557;53.572;10.170;2023-08-08T15:25:42;16.20;99.90
50606;DHT22;36557;53.572;10.170;2023-08-08T15:28:09;15.90;99.90
50606;DHT22;36557;53.572;10.170;2023-08-08T15:30:34;15.90;99.90
50606;DHT22;36557;53.572;10.170;2023-08-08T15:33:00;15.70;99.90
50606;DHT22;36557;53.572;10.170;2023-08-08T15:35:26;15.50;99.90